createdAt,value
2023-04-25T00:08:10.518Z,99664.53
2023-04-25T00:18:15.623Z,99666.72
2023-04-25T00:28:19.342Z,99661.84
2023-04-25T00:38:24.325Z,99669.25
2023-04-25T00:48:28.150Z,99669.94
2023-04-25T00:58:33.154Z,99658.78
2023-04-25T01:08:37.244Z,99660.38
2023-04-25T01:18:43.815Z,99645.66
2023-04-25T01:28:49.285Z,99650.44
2023-04-25T01:38:53.330Z,99646.97
2023-04-25T01:48:58.363Z,99664.56
2023-04-25T01:59:05.479Z,99666.13
2023-04-25T02:09:10.471Z,99664.47
2023-04-25T02:19:14.564Z,99656.66
2023-04-25T02:29:19.589Z,99656.38
2023-04-25T02:39:26.020Z,99657.25
2023-04-25T02:49:30.999Z,99648.41
2023-04-25T02:59:34.981Z,99657.97
2023-04-25T03:09:40.122Z,99662.50
2023-04-25T03:19:43.845Z,99669.06
2023-04-25T03:29:48.846Z,99667.25
2023-04-25T03:39:52.544Z,99680.47
2023-04-25T03:49:57.516Z,99678.66
2023-04-25T04:00:01.154Z,99675.22
2023-04-25T04:10:07.414Z,99681.53
2023-04-25T04:20:12.170Z,99691.13
2023-04-25T04:30:17.213Z,99701.22
2023-04-25T04:40:21.516Z,99711.41
2023-04-25T04:50:27.540Z,99730.03
2023-04-25T05:00:33.042Z,99739.88
2023-04-25T05:10:38.247Z,99752.34
2023-04-25T05:20:42.161Z,99761.22
2023-04-25T05:30:47.278Z,99769.53
2023-04-25T05:40:51.088Z,99772.25
2023-04-25T05:50:57.197Z,99765.22
2023-04-25T06:01:00.834Z,99775.47
2023-04-25T06:11:06.150Z,99771.75
2023-04-25T06:21:09.747Z,99763.09
2023-04-25T06:31:14.791Z,99762.03
2023-04-25T06:41:18.421Z,99755.44
2023-04-25T06:51:25.318Z,99756.22
2023-04-25T07:01:29.001Z,99762.28
2023-04-25T07:11:34.074Z,99766.09
2023-04-25T07:21:38.417Z,99794.25
2023-04-25T07:31:46.068Z,99784.75
2023-04-25T07:41:53.712Z,99793.06
2023-04-25T07:52:00.417Z,99788.09
2023-04-25T08:02:04.392Z,99808.28
2023-04-25T08:12:09.541Z,99804.00
2023-04-25T08:22:13.713Z,99817.03
2023-04-25T08:32:18.904Z,99827.38
2023-04-25T08:42:24.346Z,99834.94
2023-04-25T08:52:34.763Z,99838.84
2023-04-25T09:02:38.569Z,99845.72
2023-04-25T09:12:43.635Z,99851.63
2023-04-25T09:22:48.274Z,99875.75
2023-04-25T09:32:53.508Z,99876.81
2023-04-25T09:42:57.239Z,99898.50
2023-04-25T09:53:09.118Z,99898.34
2023-04-25T10:03:14.304Z,99904.28
2023-04-25T10:13:19.644Z,99904.47
2023-04-25T10:23:23.751Z,99909.22
2023-04-25T10:33:39.913Z,99935.44
2023-04-25T10:43:45.281Z,99968.13
2023-04-25T10:54:00.835Z,99974.03
2023-04-25T11:04:04.736Z,99973.78
2023-04-25T11:14:09.912Z,99974.66
2023-04-25T11:24:14.325Z,99964.38
2023-04-25T11:34:21.026Z,99954.00
2023-04-25T11:44:25.194Z,99947.19
2023-04-25T11:54:30.524Z,99960.75
2023-04-25T12:04:34.689Z,99985.53
2023-04-25T12:14:39.840Z,99988.59
2023-04-25T12:24:47.635Z,99994.03
2023-04-25T12:34:52.795Z,99991.25
2023-04-25T12:44:56.518Z,100017.28
2023-04-25T12:55:01.527Z,100011.81
2023-04-25T13:05:06.001Z,100005.22
2023-04-25T13:15:13.103Z,100014.06
2023-04-25T13:25:17.439Z,100008.03
2023-04-25T13:35:22.534Z,100007.56
2023-04-25T13:45:26.281Z,100012.97
2023-04-25T13:55:31.355Z,100023.31
2023-04-25T14:05:38.821Z,100012.00
2023-04-25T14:15:43.911Z,100013.09
2023-04-25T14:25:48.572Z,100011.84
2023-04-25T14:35:53.917Z,100009.00
2023-04-25T14:45:58.525Z,100006.19
2023-04-25T14:56:03.661Z,100021.47
2023-04-25T15:06:08.301Z,100048.72
2023-04-25T15:16:13.397Z,100044.63
2023-04-25T15:26:17.155Z,100059.94
2023-04-25T15:36:22.474Z,100064.84
2023-04-25T15:46:26.792Z,100064.56
2023-04-25T15:56:31.969Z,100061.56
2023-04-25T16:06:35.630Z,100054.34
2023-04-25T16:16:40.606Z,100055.97
2023-04-25T16:26:45.390Z,100052.22
2023-04-25T16:36:50.742Z,100065.94
2023-04-25T16:46:54.441Z,100086.59
2023-04-25T16:56:59.858Z,100103.19
2023-04-25T17:07:03.611Z,100104.47
2023-04-25T17:17:08.675Z,100110.69
2023-04-25T17:27:12.615Z,100115.75
2023-04-25T17:37:18.635Z,100108.44
2023-04-25T17:47:22.722Z,100112.28
2023-04-25T17:57:27.873Z,100133.25
2023-04-25T18:07:31.437Z,100162.03
2023-04-25T18:17:40.337Z,100180.44
2023-04-25T18:27:45.475Z,100203.47
2023-04-25T18:37:50.637Z,100218.25
2023-04-25T18:47:54.763Z,100225.69
2023-04-25T18:57:59.780Z,100243.00
2023-04-25T19:08:03.408Z,100263.16
2023-04-25T19:18:09.124Z,100263.81
2023-04-25T19:28:13.862Z,100273.78
2023-04-25T19:38:18.853Z,100290.59
2023-04-25T19:48:22.451Z,100303.41
2023-04-25T19:58:28.071Z,100302.69
2023-04-25T20:08:31.962Z,100297.94
2023-04-25T20:18:36.992Z,100312.78
2023-04-25T20:28:41.674Z,100317.75
2023-04-25T20:38:46.915Z,100324.13
2023-04-25T20:48:52.691Z,100322.72
2023-04-25T20:59:00.185Z,100329.75
2023-04-25T21:09:04.709Z,100333.53
2023-04-25T21:19:09.842Z,100340.47
2023-04-25T21:29:13.763Z,100351.91
2023-04-25T21:39:19.985Z,100356.25
2023-04-25T21:49:29.195Z,100350.06
2023-04-25T21:59:35.910Z,100357.63
2023-04-25T22:09:51.289Z,100367.06
2023-04-25T22:19:59.822Z,100390.03
2023-04-25T22:30:04.393Z,100400.34
2023-04-25T22:40:13.299Z,100409.56
2023-04-25T22:50:17.828Z,100433.66
2023-04-25T23:00:26.197Z,100440.66
2023-04-25T23:10:29.995Z,100431.13
2023-04-25T23:20:35.034Z,100454.47
2023-04-25T23:30:38.722Z,100457.25
2023-04-25T23:40:43.690Z,100459.03
2023-04-25T23:50:47.268Z,100466.69
